sensor_id;sensor_type;location;lat;lon;timestamp;temperature;humidity
62991;DHT22;49084;48.204;16.202;2023-04-24T00:01:26;11.20;99.90
62991;DHT22;49084;48.204;16.202;2023-04-24T00:03:54;11.10;99.90
62991;DHT22;49084;48.204;16.202;2023-04-24T00:06:20;11.10;99.90
62991;DHT22;49084;48.204;16.202;2023-04-24T00:08:45;11.10;99.90
62991;DHT22;49084;48.204;16.202;2023-04-24T00:11:11;11.10;99.90
62991;DHT22;49084;48.204;16.202;2023-04-24T00:13:37;11.10;99.90
62991;DHT22;49084;48.204;16.202;2023-04-24T00:16:03;11.10;99.90
62991;DHT22;49084;48.204;16.202;2023-04-24T00:18:29;11.10;99.90
62991;DHT22;49084;48.204;16.202;2023-04-24T00:20:54;11.00;99.90
62991;DHT22;49084;48.204;16.202;2023-04-24T00:23:20;11.00;99.90
62991;DHT22;49084;48.204;16.202;2023-04-24T00:25:46;10.90;99.90
62991;DHT22;49084;48.204;16.202;2023-04-24T00:28:11;10.90;99.90
62991;DHT22;49084;48.204;16.202;2023-04-24T00:30:37;10.90;99.90
62991;DHT22;49084;48.204;16.202;2023-04-24T00:33:03;10.90;99.90
62991;DHT22;49084;48.204;16.202;2023-04-24T00:35:28;10.80;99.90
62991;DHT22;49084;48.204;16.202;2023-04-24T00:37:54;10.80;99.90
62991;DHT22;49084;48.204;16.202;2023-04-24T00:40:20;10.80;99.90
62991;DHT22;49084;48.204;16.202;2023-04-24T00:42:45;10.70;99.90
62991;DHT22;49084;48.204;16.202;2023-04-24T00:45:12;10.60;99.90
62991;DHT22;49084;48.204;16.202;2023-04-24T00:47:38;10.60;99.90
62991;DHT22;49084;48.204;16.202;2023-04-24T00:50:05;10.60;99.90
62991;DHT22;49084;48.204;16.202;2023-04-24T00:52:31;10.50;99.90
62991;DHT22;49084;48.204;16.202;2023-04-24T00:54:58;10.50;99.90
62991;DHT22;49084;48.204;16.202;2023-04-24T00:57:24;10.50;99.90
62991;DHT22;49084;48.204;16.202;2023-04-24T00:59:51;10.40;99.90
62991;DHT22;49084;48.204;16.202;2023-04-24T01:02:18;10.40;99.90
62991;DHT22;49084;48.204;16.202;2023-04-24T01:04:45;10.30;99.90
62991;DHT22;49084;48.204;16.202;2023-04-24T01:07:10;10.30;99.90
62991;DHT22;49084;48.204;16.202;2023-04-24T01:09:45;10.20;99.90
62991;DHT22;49084;48.204;16.202;2023-04-24T01:12:12;10.20;99.90
62991;DHT22;49084;48.204;16.202;2023-04-24T01:14:38;10.20;99.90
62991;DHT22;49084;48.204;16.202;2023-04-24T01:17:04;10.10;99.90
62991;DHT22;49084;48.204;16.202;2023-04-24T01:19:30;10.10;99.90
62991;DHT22;49084;48.204;16.202;2023-04-24T01:21:58;10.00;99.90
62991;DHT22;49084;48.204;16.202;2023-04-24T01:24:24;10.00;99.90
62991;DHT22;49084;48.204;16.202;2023-04-24T01:26:50;10.00;99.90
62991;DHT22;49084;48.204;16.202;2023-04-24T01:29:16;10.00;99.90
62991;DHT22;49084;48.204;16.202;2023-04-24T01:31:41;10.00;99.90
62991;DHT22;49084;48.204;16.202;2023-04-24T01:34:07;10.10;99.90
62991;DHT22;49084;48.204;16.202;2023-04-24T01:36:34;10.10;99.90
62991;DHT22;49084;48.204;16.202;2023-04-24T01:39:00;10.10;99.90
62991;DHT22;49084;48.204;16.202;2023-04-24T01:41:26;10.10;99.90
62991;DHT22;49084;48.204;16.202;2023-04-24T01:43:52;10.20;99.90
62991;DHT22;49084;48.204;16.202;2023-04-24T01:46:18;10.20;99.90
62991;DHT22;49084;48.204;16.202;2023-04-24T01:48:45;10.30;99.90
62991;DHT22;49084;48.204;16.202;2023-04-24T01:51:11;10.20;99.90
62991;DHT22;49084;48.204;16.202;2023-04-24T01:53:36;10.30;99.90
62991;DHT22;49084;48.204;16.202;2023-04-24T01:56:02;10.30;99.90
62991;DHT22;49084;48.204;16.202;2023-04-24T01:58:28;10.30;99.90
62991;DHT22;49084;48.204;16.202;2023-04-24T02:00:56;10.30;99.90
62991;DHT22;49084;48.204;16.202;2023-04-24T02:03:24;10.30;99.90
62991;DHT22;49084;48.204;16.202;2023-04-24T02:05:50;10.20;99.90
62991;DHT22;49084;48.204;16.202;2023-04-24T02:08:16;10.20;99.90
62991;DHT22;49084;48.204;16.202;2023-04-24T02:10:41;10.10;99.90
62991;DHT22;49084;48.204;16.202;2023-04-24T02:13:07;10.00;99.90
62991;DHT22;49084;48.204;16.202;2023-04-24T02:15:32;10.00;99.90
62991;DHT22;49084;48.204;16.202;2023-04-24T02:17:58;9.90;99.90
62991;DHT22;49084;48.204;16.202;2023-04-24T02:20:24;9.90;99.90
62991;DHT22;49084;48.204;16.202;2023-04-24T02:22:49;9.90;99.90
62991;DHT22;49084;48.204;16.202;2023-04-24T02:25:15;10.00;99.90
62991;DHT22;49084;48.204;16.202;2023-04-24T02:27:41;10.10;99.90
62991;DHT22;49084;48.204;16.202;2023-04-24T02:30:07;10.10;99.90
62991;DHT22;49084;48.204;16.202;2023-04-24T02:32:33;10.20;99.90
62991;DHT22;49084;48.204;16.202;2023-04-24T02:34:59;10.30;99.90
62991;DHT22;49084;48.204;16.202;2023-04-24T02:37:25;10.30;99.90
62991;DHT22;49084;48.204;16.202;2023-04-24T02:39:51;10.40;99.90
62991;DHT22;49084;48.204;16.202;2023-04-24T02:42:17;10.40;99.90
62991;DHT22;49084;48.204;16.202;2023-04-24T02:44:42;10.40;99.90
62991;DHT22;49084;48.204;16.202;2023-04-24T02:47:08;10.40;99.90
62991;DHT22;49084;48.204;16.202;2023-04-24T02:49:34;10.30;99.90
62991;DHT22;49084;48.204;16.202;2023-04-24T02:51:59;10.30;99.90
62991;DHT22;49084;48.204;16.202;2023-04-24T02:54:25;10.40;99.90
62991;DHT22;49084;48.204;16.202;2023-04-24T02:56:51;10.40;99.90
62991;DHT22;49084;48.204;16.202;2023-04-24T02:59:16;10.40;99.90
62991;DHT22;49084;48.204;16.202;2023-04-24T03:01:42;10.40;99.90
62991;DHT22;49084;48.204;16.202;2023-04-24T03:04:07;10.40;99.90
62991;DHT22;49084;48.204;16.202;2023-04-24T03:06:33;10.50;99.90
62991;DHT22;49084;48.204;16.202;2023-04-24T03:09:00;10.50;99.90
62991;DHT22;49084;48.204;16.202;2023-04-24T03:11:26;10.50;99.90
62991;DHT22;49084;48.204;16.202;2023-04-24T03:13:52;10.60;99.90
62991;DHT22;49084;48.204;16.202;2023-04-24T03:16:17;10.70;99.90
62991;DHT22;49084;48.204;16.202;2023-04-24T03:18:43;10.80;99.90
62991;DHT22;49084;48.204;16.202;2023-04-24T03:21:09;10.80;99.90
62991;DHT22;49084;48.204;16.202;2023-04-24T03:23:34;10.90;99.90
62991;DHT22;49084;48.204;16.202;2023-04-24T03:26:00;10.90;99.90
62991;DHT22;49084;48.204;16.202;2023-04-24T03:28:26;11.00;99.90
62991;DHT22;49084;48.204;16.202;2023-04-24T03:30:51;11.10;99.90
62991;DHT22;49084;48.204;16.202;2023-04-24T03:33:17;11.20;99.90
62991;DHT22;49084;48.204;16.202;2023-04-24T03:35:43;11.30;99.90
62991;DHT22;49084;48.204;16.202;2023-04-24T03:38:08;11.40;99.90
62991;DHT22;49084;48.204;16.202;2023-04-24T03:40:34;11.50;99.90
62991;DHT22;49084;48.204;16.202;2023-04-24T03:43:00;11.60;99.90
62991;DHT22;49084;48.204;16.202;2023-04-24T03:45:25;11.60;99.90
62991;DHT22;49084;48.204;16.202;2023-04-24T03:47:51;11.60;99.90
62991;DHT22;49084;48.204;16.202;2023-04-24T03:50:16;11.70;99.90
62991;DHT22;49084;48.204;16.202;2023-04-24T03:52:42;11.70;99.90
62991;DHT22;49084;48.204;16.202;2023-04-24T03:55:08;11.80;99.90
62991;DHT22;49084;48.204;16.202;2023-04-24T03:57:33;11.80;99.90
62991;DHT22;49084;48.204;16.202;2023-04-24T03:59:59;11.80;99.90
62991;DHT22;49084;48.204;16.202;2023-04-24T04:02:25;11.80;99.90
62991;DHT22;49084;48.204;16.202;2023-04-24T04:04:50;11.90;99.90
62991;DHT22;49084;48.204;16.202;2023-04-24T04:07:16;11.90;99.90
62991;DHT22;49084;48.204;16.202;2023-04-24T04:09:42;11.90;99.90
62991;DHT22;49084;48.204;16.202;2023-04-24T04:12:07;11.90;99.90
62991;DHT22;49084;48.204;16.202;2023-04-24T04:14:33;12.00;99.90
62991;DHT22;49084;48.204;16.202;2023-04-24T04:16:59;12.00;99.90
62991;DHT22;49084;48.204;16.202;2023-04-24T04:19:24;12.10;99.90
62991;DHT22;49084;48.204;16.202;2023-04-24T04:21:50;12.10;99.90
62991;DHT22;49084;48.204;16.202;2023-04-24T04:24:19;12.10;99.90
62991;DHT22;49084;48.204;16.202;2023-04-24T04:26:46;12.10;99.90
62991;DHT22;49084;48.204;16.202;2023-04-24T04:29:13;12.10;99.90
62991;DHT22;49084;48.204;16.202;2023-04-24T04:31:39;12.10;99.90
62991;DHT22;49084;48.204;16.202;2023-04-24T04:34:04;12.20;99.90
62991;DHT22;49084;48.204;16.202;2023-04-24T04:36:31;12.20;99.90
62991;DHT22;49084;48.204;16.202;2023-04-24T04:38:56;12.20;99.90
62991;DHT22;49084;48.204;16.202;2023-04-24T04:41:24;12.20;99.90
62991;DHT22;49084;48.204;16.202;2023-04-24T04:43:50;12.20;99.90
62991;DHT22;49084;48.204;16.202;2023-04-24T04:46:16;12.20;99.90
62991;DHT22;49084;48.204;16.202;2023-04-24T04:48:42;12.20;99.90
62991;DHT22;49084;48.204;16.202;2023-04-24T04:51:07;12.20;99.90
62991;DHT22;49084;48.204;16.202;2023-04-24T04:53:33;12.20;99.90
62991;DHT22;49084;48.204;16.202;2023-04-24T04:55:58;12.20;99.90
62991;DHT22;49084;48.204;16.202;2023-04-24T04:58:25;12.30;99.90
62991;DHT22;49084;48.204;16.202;2023-04-24T05:00:50;12.40;99.90
62991;DHT22;49084;48.204;16.202;2023-04-24T05:03:17;12.40;99.90
62991;DHT22;49084;48.204;16.202;2023-04-24T05:05:43;12.40;99.90
62991;DHT22;49084;48.204;16.202;2023-04-24T05:08:08;12.50;99.90
62991;DHT22;49084;48.204;16.202;2023-04-24T05:10:34;12.50;99.90
62991;DHT22;49084;48.204;16.202;2023-04-24T05:13:02;12.60;99.90
62991;DHT22;49084;48.204;16.202;2023-04-24T05:15:28;12.60;99.90
62991;DHT22;49084;48.204;16.202;2023-04-24T05:17:54;12.60;99.90
62991;DHT22;49084;48.204;16.202;2023-04-24T05:20:20;12.70;99.90
62991;DHT22;49084;48.204;16.202;2023-04-24T05:22:45;12.70;99.90
62991;DHT22;49084;48.204;16.202;2023-04-24T05:25:11;12.70;99.90
62991;DHT22;49084;48.204;16.202;2023-04-24T05:27:38;12.80;99.90
62991;DHT22;49084;48.204;16.202;2023-04-24T05:30:04;12.80;99.90
62991;DHT22;49084;48.204;16.202;2023-04-24T05:32:30;12.90;99.90
62991;DHT22;49084;48.204;16.202;2023-04-24T05:34:55;12.90;99.90
62991;DHT22;49084;48.204;16.202;2023-04-24T05:37:21;13.00;99.90
62991;DHT22;49084;48.204;16.202;2023-04-24T05:39:47;13.10;99.90
62991;DHT22;49084;48.204;16.202;2023-04-24T05:42:12;13.20;99.90
62991;DHT22;49084;48.204;16.202;2023-04-24T05:44:38;13.20;99.90
62991;DHT22;49084;48.204;16.202;2023-04-24T05:47:04;13.30;99.90
62991;DHT22;49084;48.204;16.202;2023-04-24T05:49:29;13.30;99.90
62991;DHT22;49084;48.204;16.202;2023-04-24T05:51:55;13.30;99.90
62991;DHT22;49084;48.204;16.202;2023-04-24T05:54:21;13.40;99.90
62991;DHT22;49084;48.204;16.202;2023-04-24T05:56:47;13.40;99.90
62991;DHT22;49084;48.204;16.202;2023-04-24T05:59:12;13.50;99.90
62991;DHT22;49084;48.204;16.202;2023-04-24T06:01:38;13.50;99.90
62991;DHT22;49084;48.204;16.202;2023-04-24T06:04:04;13.50;99.90
62991;DHT22;49084;48.204;16.202;2023-04-24T06:06:29;13.60;99.90
62991;DHT22;49084;48.204;16.202;2023-04-24T06:08:55;13.60;99.90
62991;DHT22;49084;48.204;16.202;2023-04-24T06:11:22;13.70;99.90
62991;DHT22;49084;48.204;16.202;2023-04-24T06:13:48;13.70;99.90
62991;DHT22;49084;48.204;16.202;2023-04-24T06:16:14;13.80;99.90
62991;DHT22;49084;48.204;16.202;2023-04-24T06:18:39;13.80;99.90
62991;DHT22;49084;48.204;16.202;2023-04-24T06:21:05;13.80;99.90
62991;DHT22;49084;48.204;16.202;2023-04-24T06:23:31;13.80;99.90
62991;DHT22;49084;48.204;16.202;2023-04-24T06:25:58;13.90;99.90
62991;DHT22;49084;48.204;16.202;2023-04-24T06:28:24;14.00;99.90
62991;DHT22;49084;48.204;16.202;2023-04-24T06:30:50;14.00;99.90
62991;DHT22;49084;48.204;16.202;2023-04-24T06:33:16;14.00;99.90
62991;DHT22;49084;48.204;16.202;2023-04-24T06:35:42;14.00;99.90
62991;DHT22;49084;48.204;16.202;2023-04-24T06:38:08;14.10;99.90
62991;DHT22;49084;48.204;16.202;2023-04-24T06:40:33;14.10;99.90
62991;DHT22;49084;48.204;16.202;2023-04-24T06:42:59;14.10;99.90
62991;DHT22;49084;48.204;16.202;2023-04-24T06:45:28;14.20;99.90
62991;DHT22;49084;48.204;16.202;2023-04-24T06:47:54;14.10;99.90
62991;DHT22;49084;48.204;16.202;2023-04-24T06:50:20;14.10;99.90
62991;DHT22;49084;48.204;16.202;2023-04-24T06:52:45;14.10;99.90
62991;DHT22;49084;48.204;16.202;2023-04-24T06:55:11;14.20;99.90
62991;DHT22;49084;48.204;16.202;2023-04-24T06:57:37;14.20;99.90
62991;DHT22;49084;48.204;16.202;2023-04-24T07:00:04;14.20;99.90
62991;DHT22;49084;48.204;16.202;2023-04-24T07:02:31;14.10;99.90
62991;DHT22;49084;48.204;16.202;2023-04-24T07:04:57;14.20;99.90
62991;DHT22;49084;48.204;16.202;2023-04-24T07:07:23;14.30;99.90
62991;DHT22;49084;48.204;16.202;2023-04-24T07:09:49;14.30;99.90
62991;DHT22;49084;48.204;16.202;2023-04-24T07:12:16;14.30;99.90
62991;DHT22;49084;48.204;16.202;2023-04-24T07:14:42;14.40;99.90
62991;DHT22;49084;48.204;16.202;2023-04-24T07:17:08;14.50;99.90
62991;DHT22;49084;48.204;16.202;2023-04-24T07:19:34;14.40;99.90
62991;DHT22;49084;48.204;16.202;2023-04-24T07:22:02;14.30;99.90
62991;DHT22;49084;48.204;16.202;2023-04-24T07:24:29;14.30;99.90
62991;DHT22;49084;48.204;16.202;2023-04-24T07:26:55;14.30;99.90
62991;DHT22;49084;48.204;16.202;2023-04-24T07:29:20;14.30;99.90
62991;DHT22;49084;48.204;16.202;2023-04-24T07:31:46;14.20;99.90
62991;DHT22;49084;48.204;16.202;2023-04-24T07:34:12;14.20;99.90
62991;DHT22;49084;48.204;16.202;2023-04-24T07:36:38;14.10;99.90
62991;DHT22;49084;48.204;16.202;2023-04-24T07:39:04;14.00;99.90
62991;DHT22;49084;48.204;16.202;2023-04-24T07:41:30;13.90;99.90
62991;DHT22;49084;48.204;16.202;2023-04-24T07:43:56;13.90;99.90
62991;DHT22;49084;48.204;16.202;2023-04-24T07:46:21;13.80;99.90
62991;DHT22;49084;48.204;16.202;2023-04-24T07:48:48;13.70;99.90
62991;DHT22;49084;48.204;16.202;2023-04-24T07:51:14;13.70;99.90
62991;DHT22;49084;48.204;16.202;2023-04-24T07:53:41;13.70;99.90
62991;DHT22;49084;48.204;16.202;2023-04-24T07:56:07;13.70;99.90
62991;DHT22;49084;48.204;16.202;2023-04-24T07:58:32;13.70;99.90
62991;DHT22;49084;48.204;16.202;2023-04-24T08:00:58;13.80;99.90
62991;DHT22;49084;48.204;16.202;2023-04-24T08:03:24;13.80;99.90
62991;DHT22;49084;48.204;16.202;2023-04-24T08:05:50;13.70;99.90
62991;DHT22;49084;48.204;16.202;2023-04-24T08:08:16;13.80;99.90
62991;DHT22;49084;48.204;16.202;2023-04-24T08:10:42;13.80;99.90
62991;DHT22;49084;48.204;16.202;2023-04-24T08:13:08;13.80;99.90
62991;DHT22;49084;48.204;16.202;2023-04-24T08:15:34;13.80;99.90
62991;DHT22;49084;48.204;16.202;2023-04-24T08:18:00;13.80;99.90
62991;DHT22;49084;48.204;16.202;2023-04-24T08:20:26;13.70;99.90
62991;DHT22;49084;48.204;16.202;2023-04-24T08:22:51;13.70;99.90
62991;DHT22;49084;48.204;16.202;2023-04-24T08:25:17;13.50;99.90
62991;DHT22;49084;48.204;16.202;2023-04-24T08:27:44;13.30;99.90
62991;DHT22;49084;48.204;16.202;2023-04-24T08:30:10;13.10;99.90
62991;DHT22;49084;48.204;16.202;2023-04-24T08:32:36;13.00;99.90
62991;DHT22;49084;48.204;16.202;2023-04-24T08:35:03;12.90;99.90
62991;DHT22;49084;48.204;16.202;2023-04-24T08:37:29;12.80;99.90
62991;DHT22;49084;48.204;16.202;2023-04-24T08:39:54;12.80;99.90
62991;DHT22;49084;48.204;16.202;2023-04-24T08:42:20;12.70;99.90
62991;DHT22;49084;48.204;16.202;2023-04-24T08:44:48;12.50;99.90
62991;DHT22;49084;48.204;16.202;2023-04-24T08:47:15;12.40;99.90
62991;DHT22;49084;48.204;16.202;2023-04-24T08:49:40;12.40;99.90
62991;DHT22;49084;48.204;16.202;2023-04-24T08:52:07;12.30;99.90
62991;DHT22;49084;48.204;16.202;2023-04-24T08:54:36;12.30;99.90
62991;DHT22;49084;48.204;16.202;2023-04-24T08:57:03;12.30;99.90
62991;DHT22;49084;48.204;16.202;2023-04-24T08:59:30;12.40;99.90
62991;DHT22;49084;48.204;16.202;2023-04-24T09:01:57;12.40;99.90
62991;DHT22;49084;48.204;16.202;2023-04-24T09:04:24;12.40;99.90
62991;DHT22;49084;48.204;16.202;2023-04-24T09:06:59;12.40;99.90
62991;DHT22;49084;48.204;16.202;2023-04-24T09:09:25;12.50;99.90
62991;DHT22;49084;48.204;16.202;2023-04-24T09:11:52;12.70;99.90
62991;DHT22;49084;48.204;16.202;2023-04-24T09:14:20;12.70;99.90
62991;DHT22;49084;48.204;16.202;2023-04-24T09:16:46;12.50;99.90
62991;DHT22;49084;48.204;16.202;2023-04-24T09:19:12;12.50;99.90
62991;DHT22;49084;48.204;16.202;2023-04-24T09:21:38;12.50;99.90
62991;DHT22;49084;48.204;16.202;2023-04-24T09:24:06;12.50;99.90
62991;DHT22;49084;48.204;16.202;2023-04-24T09:26:35;12.70;99.90
62991;DHT22;49084;48.204;16.202;2023-04-24T09:29:01;12.70;99.90
62991;DHT22;49084;48.204;16.202;2023-04-24T09:31:28;12.80;99.90
62991;DHT22;49084;48.204;16.202;2023-04-24T09:34:04;12.80;99.90
62991;DHT22;49084;48.204;16.202;2023-04-24T09:39:04;12.90;99.90
62991;DHT22;49084;48.204;16.202;2023-04-24T09:41:32;12.80;99.90
62991;DHT22;49084;48.204;16.202;2023-04-24T09:44:11;12.80;99.90
62991;DHT22;49084;48.204;16.202;2023-04-24T09:46:37;12.80;99.90
62991;DHT22;49084;48.204;16.202;2023-04-24T09:49:24;12.80;99.90
62991;DHT22;49084;48.204;16.202;2023-04-24T09:51:51;12.80;99.90
62991;DHT22;49084;48.204;16.202;2023-04-24T09:54:18;12.80;99.90
62991;DHT22;49084;48.204;16.202;2023-04-24T09:56:46;12.90;99.90
62991;DHT22;49084;48.204;16.202;2023-04-24T09:59:14;12.90;99.90
62991;DHT22;49084;48.204;16.202;2023-04-24T10:01:41;12.90;99.90
62991;DHT22;49084;48.204;16.202;2023-04-24T10:04:19;13.00;99.90
62991;DHT22;49084;48.204;16.202;2023-04-24T10:06:45;12.90;99.90
62991;DHT22;49084;48.204;16.202;2023-04-24T10:09:12;12.80;99.90
62991;DHT22;49084;48.204;16.202;2023-04-24T10:11:42;12.70;99.90
62991;DHT22;49084;48.204;16.202;2023-04-24T10:14:12;12.70;99.90
62991;DHT22;49084;48.204;16.202;2023-04-24T10:16:39;12.60;99.90
62991;DHT22;49084;48.204;16.202;2023-04-24T10:19:06;12.50;99.90
62991;DHT22;49084;48.204;16.202;2023-04-24T10:21:33;12.40;99.90
62991;DHT22;49084;48.204;16.202;2023-04-24T10:23:59;12.40;99.90
62991;DHT22;49084;48.204;16.202;2023-04-24T10:26:29;12.40;99.90
62991;DHT22;49084;48.204;16.202;2023-04-24T10:28:57;12.40;99.90
62991;DHT22;49084;48.204;16.202;2023-04-24T10:31:23;12.40;99.90
62991;DHT22;49084;48.204;16.202;2023-04-24T10:33:50;12.40;99.90
62991;DHT22;49084;48.204;16.202;2023-04-24T10:36:17;12.30;99.90
62991;DHT22;49084;48.204;16.202;2023-04-24T10:38:45;12.40;99.90
62991;DHT22;49084;48.204;16.202;2023-04-24T10:41:12;12.40;99.90
62991;DHT22;49084;48.204;16.202;2023-04-24T10:43:45;12.30;99.90
62991;DHT22;49084;48.204;16.202;2023-04-24T10:46:19;12.30;99.90
62991;DHT22;49084;48.204;16.202;2023-04-24T10:48:52;12.40;99.90
62991;DHT22;49084;48.204;16.202;2023-04-24T10:51:22;12.40;99.90
62991;DHT22;49084;48.204;16.202;2023-04-24T10:53:50;12.30;99.90
62991;DHT22;49084;48.204;16.202;2023-04-24T10:56:16;12.20;99.90
62991;DHT22;49084;48.204;16.202;2023-04-24T10:58:44;12.20;99.90
62991;DHT22;49084;48.204;16.202;2023-04-24T11:01:30;12.10;99.90
62991;DHT22;49084;48.204;16.202;2023-04-24T11:04:02;12.10;99.90
62991;DHT22;49084;48.204;16.202;2023-04-24T11:06:37;12.10;99.90
62991;DHT22;49084;48.204;16.202;2023-04-24T11:11:29;12.20;99.90
62991;DHT22;49084;48.204;16.202;2023-04-24T11:16:28;12.20;99.90
62991;DHT22;49084;48.204;16.202;2023-04-24T11:21:59;12.10;99.90
62991;DHT22;49084;48.204;16.202;2023-04-24T11:26:55;12.10;99.90
62991;DHT22;49084;48.204;16.202;2023-04-24T11:29:21;12.00;99.90
62991;DHT22;49084;48.204;16.202;2023-04-24T11:31:47;11.90;99.90
62991;DHT22;49084;48.204;16.202;2023-04-24T11:34:17;11.90;99.90
62991;DHT22;49084;48.204;16.202;2023-04-24T11:36:44;11.90;99.90
62991;DHT22;49084;48.204;16.202;2023-04-24T11:39:10;12.00;99.90
62991;DHT22;49084;48.204;16.202;2023-04-24T11:41:37;12.00;99.90
62991;DHT22;49084;48.204;16.202;2023-04-24T11:44:05;12.00;99.90
62991;DHT22;49084;48.204;16.202;2023-04-24T11:46:31;12.00;99.90
62991;DHT22;49084;48.204;16.202;2023-04-24T11:48:57;12.00;99.90
62991;DHT22;49084;48.204;16.202;2023-04-24T11:51:24;12.00;99.90
62991;DHT22;49084;48.204;16.202;2023-04-24T11:53:54;12.20;99.90
62991;DHT22;49084;48.204;16.202;2023-04-24T11:56:24;12.30;99.90
62991;DHT22;49084;48.204;16.202;2023-04-24T11:58:52;12.40;99.90
62991;DHT22;49084;48.204;16.202;2023-04-24T12:01:19;12.60;99.90
62991;DHT22;49084;48.204;16.202;2023-04-24T12:03:49;12.70;99.90
62991;DHT22;49084;48.204;16.202;2023-04-24T12:06:16;12.90;99.90
62991;DHT22;49084;48.204;16.202;2023-04-24T12:08:46;13.10;99.90
62991;DHT22;49084;48.204;16.202;2023-04-24T12:11:15;13.30;99.90
62991;DHT22;49084;48.204;16.202;2023-04-24T12:13:41;13.40;99.90
62991;DHT22;49084;48.204;16.202;2023-04-24T12:16:07;13.70;99.90
62991;DHT22;49084;48.204;16.202;2023-04-24T12:18:32;13.90;99.90
62991;DHT22;49084;48.204;16.202;2023-04-24T12:21:21;14.10;99.90
62991;DHT22;49084;48.204;16.202;2023-04-24T12:23:47;14.10;99.90
62991;DHT22;49084;48.204;16.202;2023-04-24T12:26:17;14.20;99.90
62991;DHT22;49084;48.204;16.202;2023-04-24T12:28:47;14.20;99.90
62991;DHT22;49084;48.204;16.202;2023-04-24T12:31:13;14.20;99.90
62991;DHT22;49084;48.204;16.202;2023-04-24T12:33:39;14.20;99.90
62991;DHT22;49084;48.204;16.202;2023-04-24T12:36:05;14.30;99.90
62991;DHT22;49084;48.204;16.202;2023-04-24T12:38:31;14.40;99.90
62991;DHT22;49084;48.204;16.202;2023-04-24T12:41:11;14.60;99.90
62991;DHT22;49084;48.204;16.202;2023-04-24T12:43:37;14.60;99.90
62991;DHT22;49084;48.204;16.202;2023-04-24T12:46:03;14.60;99.90
62991;DHT22;49084;48.204;16.202;2023-04-24T12:48:29;14.50;99.90
62991;DHT22;49084;48.204;16.202;2023-04-24T12:50:57;14.40;99.90
62991;DHT22;49084;48.204;16.202;2023-04-24T12:53:26;14.30;99.90
62991;DHT22;49084;48.204;16.202;2023-04-24T12:55:53;14.30;99.90
62991;DHT22;49084;48.204;16.202;2023-04-24T12:58:22;14.20;99.90
62991;DHT22;49084;48.204;16.202;2023-04-24T13:00:48;14.10;99.90
62991;DHT22;49084;48.204;16.202;2023-04-24T13:03:14;14.00;99.90
62991;DHT22;49084;48.204;16.202;2023-04-24T13:05:40;13.90;99.90
62991;DHT22;49084;48.204;16.202;2023-04-24T13:08:06;13.80;99.90
62991;DHT22;49084;48.204;16.202;2023-04-24T13:10:31;13.80;99.90
62991;DHT22;49084;48.204;16.202;2023-04-24T13:12:57;14.00;99.90
62991;DHT22;49084;48.204;16.202;2023-04-24T13:15:23;14.10;99.90
62991;DHT22;49084;48.204;16.202;2023-04-24T13:17:50;14.20;99.90
62991;DHT22;49084;48.204;16.202;2023-04-24T13:20:15;14.30;99.90
62991;DHT22;49084;48.204;16.202;2023-04-24T13:22:41;14.30;99.90
62991;DHT22;49084;48.204;16.202;2023-04-24T13:25:07;14.30;99.90
62991;DHT22;49084;48.204;16.202;2023-04-24T13:27:33;14.20;99.90
62991;DHT22;49084;48.204;16.202;2023-04-24T13:29:58;14.20;99.90
62991;DHT22;49084;48.204;16.202;2023-04-24T13:32:24;14.10;99.90
62991;DHT22;49084;48.204;16.202;2023-04-24T13:34:50;14.10;99.90
62991;DHT22;49084;48.204;16.202;2023-04-24T13:37:16;14.00;99.90
62991;DHT22;49084;48.204;16.202;2023-04-24T13:39:42;13.90;99.90
62991;DHT22;49084;48.204;16.202;2023-04-24T13:42:07;13.90;99.90
62991;DHT22;49084;48.204;16.202;2023-04-24T13:44:33;13.80;99.90
62991;DHT22;49084;48.204;16.202;2023-04-24T13:46:59;13.70;99.90
62991;DHT22;49084;48.204;16.202;2023-04-24T13:49:26;13.70;99.90
62991;DHT22;49084;48.204;16.202;2023-04-24T13:51:53;13.60;99.90
62991;DHT22;49084;48.204;16.202;2023-04-24T13:54:19;13.60;99.90
62991;DHT22;49084;48.204;16.202;2023-04-24T13:56:44;13.70;99.90
62991;DHT22;49084;48.204;16.202;2023-04-24T13:59:12;13.70;99.90
62991;DHT22;49084;48.204;16.202;2023-04-24T14:01:38;13.60;99.90
62991;DHT22;49084;48.204;16.202;2023-04-24T14:04:04;13.70;99.90
62991;DHT22;49084;48.204;16.202;2023-04-24T14:06:30;13.70;99.90
62991;DHT22;49084;48.204;16.202;2023-04-24T14:08:56;13.80;99.90
62991;DHT22;49084;48.204;16.202;2023-04-24T14:11:22;13.70;99.90
62991;DHT22;49084;48.204;16.202;2023-04-24T14:13:48;13.60;99.90
62991;DHT22;49084;48.204;16.202;2023-04-24T14:16:14;13.50;99.90
62991;DHT22;49084;48.204;16.202;2023-04-24T14:18:40;13.30;99.90
62991;DHT22;49084;48.204;16.202;2023-04-24T14:21:06;13.20;99.90
62991;DHT22;49084;48.204;16.202;2023-04-24T14:23:32;12.90;99.90
62991;DHT22;49084;48.204;16.202;2023-04-24T14:25:58;12.70;99.90
62991;DHT22;49084;48.204;16.202;2023-04-24T14:28:24;12.50;99.90
62991;DHT22;49084;48.204;16.202;2023-04-24T14:30:50;12.40;99.90
62991;DHT22;49084;48.204;16.202;2023-04-24T14:33:17;12.20;99.90
62991;DHT22;49084;48.204;16.202;2023-04-24T14:35:43;12.10;99.90
62991;DHT22;49084;48.204;16.202;2023-04-24T14:38:09;12.00;99.90
62991;DHT22;49084;48.204;16.202;2023-04-24T14:40:35;12.00;99.90
62991;DHT22;49084;48.204;16.202;2023-04-24T14:43:01;11.90;99.90
62991;DHT22;49084;48.204;16.202;2023-04-24T14:45:27;11.80;99.90
62991;DHT22;49084;48.204;16.202;2023-04-24T14:47:53;11.80;99.90
62991;DHT22;49084;48.204;16.202;2023-04-24T14:50:19;11.80;99.90
62991;DHT22;49084;48.204;16.202;2023-04-24T14:52:45;11.70;99.90
62991;DHT22;49084;48.204;16.202;2023-04-24T14:55:11;11.70;99.90
62991;DHT22;49084;48.204;16.202;2023-04-24T14:57:37;11.70;99.90
62991;DHT22;49084;48.204;16.202;2023-04-24T15:00:04;11.70;99.90
62991;DHT22;49084;48.204;16.202;2023-04-24T15:02:32;11.70;99.90
62991;DHT22;49084;48.204;16.202;2023-04-24T15:04:58;11.70;99.90
62991;DHT22;49084;48.204;16.202;2023-04-24T15:07:24;11.70;99.90
62991;DHT22;49084;48.204;16.202;2023-04-24T15:09:49;11.70;99.90
62991;DHT22;49084;48.204;16.202;2023-04-24T15:12:15;11.70;99.90
62991;DHT22;49084;48.204;16.202;2023-04-24T15:14:41;11.70;99.90
62991;DHT22;49084;48.204;16.202;2023-04-24T15:17:07;11.70;99.90
62991;DHT22;49084;48.204;16.202;2023-04-24T15:19:32;11.70;99.90
62991;DHT22;49084;48.204;16.202;2023-04-24T15:21:58;11.70;99.90
62991;DHT22;49084;48.204;16.202;2023-04-24T15:24:24;11.60;99.90